Time;durP1;ratioP1;P1;durP2;ratioP2;P2;SDS_P1;SDS_P2;PMS_P1;PMS_P2;Temp;Humidity;BMP_temperature;BMP_pressure;BME280_temperature;BME280_humidity;BME280_pressure;Samples;Min_cycle;Max_cycle;Signal;HPM_P1;HPM_P2
2022/08/30 00:01:04;;;;;;;;;2.67;1.33;;;;;;;;5023460;28;61928;-75
2022/08/30 00:03:35;;;;;;;;;2.67;0.67;;;;;;;;5023411;28;62002;-75
2022/08/30 00:06:01;;;;;;;;;2.33;1.67;;;;;;;;5022022;28;61904;-75
2022/08/30 00:08:26;;;;;;;;;3.67;1.00;;;;;;;;5022679;28;61861;-75
2022/08/30 00:10:52;;;;;;;;;1.00;1.00;;;;;;;;5022161;28;61944;-75
2022/08/30 00:13:18;;;;;;;;;2.00;2.00;;;;;;;;5023182;28;62504;-75
2022/08/30 00:15:43;;;;;;;;;3.00;3.00;;;;;;;;5023149;28;61885;-75
2022/08/30 00:18:09;;;;;;;;;1.67;1.00;;;;;;;;5021935;28;61823;-75
2022/08/30 00:20:35;;;;;;;;;2.00;1.33;;;;;;;;5022251;28;62100;-75
2022/08/30 00:23:00;;;;;;;;;2.67;1.33;;;;;;;;5023010;28;61844;-75
2022/08/30 00:25:26;;;;;;;;;3.00;2.33;;;;;;;;5021980;28;61746;-75
2022/08/30 00:27:51;;;;;;;;;2.50;1.00;;;;;;;;5022262;28;61830;-75
2022/08/30 00:30:17;;;;;;;;;2.33;1.67;;;;;;;;5021530;28;61937;-75
2022/08/30 00:32:43;;;;;;;;;2.33;1.00;;;;;;;;5021496;28;63203;-75
2022/08/30 00:35:10;;;;;;;;;3.33;1.00;;;;;;;;5022881;28;61962;-75
2022/08/30 00:37:36;;;;;;;;;4.00;2.00;;;;;;;;5023515;28;61799;-75
2022/08/30 00:40:04;;;;;;;;;4.00;2.00;;;;;;;;5023336;28;61732;-75
2022/08/30 00:42:29;;;;;;;;;3.33;1.00;;;;;;;;5021348;28;64680;-75
2022/08/30 00:44:55;;;;;;;;;3.00;1.33;;;;;;;;5021627;28;61804;-75
2022/08/30 00:47:20;;;;;;;;;4.00;3.00;;;;;;;;5021712;28;61742;-75
2022/08/30 00:49:48;;;;;;;;;1.00;1.00;;;;;;;;5023144;28;61810;-75
2022/08/30 00:52:14;;;;;;;;;5.67;2.00;;;;;;;;5022480;28;61751;-75
2022/08/30 00:54:43;;;;;;;;;2.67;2.00;;;;;;;;5022728;28;62103;-75
2022/08/30 00:57:09;;;;;;;;;3.33;2.00;;;;;;;;5023363;28;61908;-75
2022/08/30 00:59:34;;;;;;;;;1.00;1.00;;;;;;;;5021570;28;61929;-75
2022/08/30 01:02:01;;;;;;;;;2.00;2.00;;;;;;;;5022318;28;61976;-75
2022/08/30 01:04:28;;;;;;;;;2.00;2.00;;;;;;;;5021335;28;61857;-75
2022/08/30 01:06:53;;;;;;;;;1.00;1.00;;;;;;;;5021755;28;61997;-75
2022/08/30 01:09:18;;;;;;;;;3.67;2.33;;;;;;;;5021141;28;61856;-75
2022/08/30 01:11:45;;;;;;;;;1.67;1.67;;;;;;;;5021077;28;63523;-75
2022/08/30 01:14:11;;;;;;;;;2.33;2.33;;;;;;;;5021490;28;62299;-75
2022/08/30 01:16:37;;;;;;;;;2.00;2.00;;;;;;;;5021998;28;61966;-75
2022/08/30 01:19:03;;;;;;;;;5.00;3.00;;;;;;;;5022761;28;62221;-75
2022/08/30 01:21:41;;;;;;;;;2.75;2.00;;;;;;;;5022015;28;61818;-75
2022/08/30 01:24:07;;;;;;;;;2.50;2.50;;;;;;;;5022435;28;61728;-75
2022/08/30 01:26:33;;;;;;;;;6.25;1.00;;;;;;;;5021099;28;61813;-75
2022/08/30 01:29:01;;;;;;;;;6.33;2.00;;;;;;;;5021293;28;61983;-75
2022/08/30 01:31:26;;;;;;;;;4.00;2.00;;;;;;;;5020037;28;64936;-75
2022/08/30 01:33:51;;;;;;;;;2.33;2.00;;;;;;;;5020757;28;61887;-75
2022/08/30 01:36:17;;;;;;;;;3.67;1.33;;;;;;;;5022525;28;61858;-75
2022/08/30 01:38:51;;;;;;;;;1.00;1.00;;;;;;;;5021149;28;61792;-75
2022/08/30 01:41:19;;;;;;;;;3.00;2.00;;;;;;;;5020307;28;64747;-75
2022/08/30 01:43:44;;;;;;;;;3.00;3.00;;;;;;;;5022089;28;61763;-75
2022/08/30 01:46:11;;;;;;;;;2.00;1.00;;;;;;;;5020707;28;61894;-75
2022/08/30 01:48:38;;;;;;;;;4.33;3.00;;;;;;;;5022104;28;62143;-75
2022/08/30 01:51:03;;;;;;;;;3.33;2.00;;;;;;;;5019986;28;64720;-75
2022/08/30 01:53:29;;;;;;;;;1.33;1.33;;;;;;;;5020256;28;61876;-75
2022/08/30 01:55:55;;;;;;;;;2.00;2.00;;;;;;;;5022534;28;61704;-75
2022/08/30 01:58:20;;;;;;;;;1.33;1.00;;;;;;;;5022418;28;61915;-75
2022/08/30 02:00:47;;;;;;;;;4.00;1.33;;;;;;;;5019493;28;63920;-75
2022/08/30 02:03:12;;;;;;;;;2.67;1.67;;;;;;;;5021993;28;61850;-75
2022/08/30 02:05:37;;;;;;;;;3.00;3.00;;;;;;;;5022095;28;61818;-75
2022/08/30 02:08:03;;;;;;;;;1.67;1.67;;;;;;;;5027634;28;61800;-75
2022/08/30 02:10:29;;;;;;;;;3.00;2.00;;;;;;;;5026537;28;63992;-75
2022/08/30 02:12:54;;;;;;;;;5.00;2.00;;;;;;;;5027208;28;61921;-75
2022/08/30 02:15:20;;;;;;;;;5.00;2.00;;;;;;;;5028114;28;61756;-75
2022/08/30 02:17:45;;;;;;;;;2.00;2.00;;;;;;;;5028431;28;62085;-74
2022/08/30 02:20:10;;;;;;;;;3.00;3.00;;;;;;;;5027886;28;61761;-75
2022/08/30 02:22:36;;;;;;;;;1.00;1.00;;;;;;;;5027081;28;61753;-75
2022/08/30 02:25:02;;;;;;;;;2.33;2.00;;;;;;;;5027052;28;61822;-75
2022/08/30 02:27:28;;;;;;;;;2.67;1.67;;;;;;;;5028592;28;61911;-75
2022/08/30 02:29:53;;;;;;;;;4.00;2.00;;;;;;;;5026768;28;62705;-75
2022/08/30 02:32:18;;;;;;;;;3.50;2.75;;;;;;;;5026820;28;61723;-75
2022/08/30 02:34:44;;;;;;;;;2.00;2.00;;;;;;;;5028321;28;61800;-75
2022/08/30 02:37:09;;;;;;;;;7.00;2.67;;;;;;;;5027234;28;61767;-75
2022/08/30 02:39:34;;;;;;;;;3.00;3.00;;;;;;;;5027394;28;61784;-75
2022/08/30 02:42:00;;;;;;;;;3.33;2.00;;;;;;;;5026655;28;61893;-75
2022/08/30 02:44:25;;;;;;;;;4.00;2.67;;;;;;;;5026912;28;62109;-75
2022/08/30 02:46:50;;;;;;;;;4.00;2.50;;;;;;;;5026221;28;62318;-75
2022/08/30 02:49:16;;;;;;;;;3.25;3.25;;;;;;;;5027521;28;61807;-75
2022/08/30 02:51:41;;;;;;;;;4.00;4.00;;;;;;;;5027800;28;61817;-75
2022/08/30 02:54:06;;;;;;;;;3.33;3.33;;;;;;;;5027836;28;61740;-75
2022/08/30 02:56:31;;;;;;;;;3.00;3.00;;;;;;;;5028440;28;62369;-75
2022/08/30 02:58:57;;;;;;;;;3.75;3.50;;;;;;;;5027214;28;63218;-75
2022/08/30 03:01:22;;;;;;;;;5.25;3.00;;;;;;;;5027383;28;61853;-75
2022/08/30 03:03:48;;;;;;;;;7.25;4.50;;;;;;;;5026539;28;61889;-74
2022/08/30 03:06:14;;;;;;;;;5.25;3.00;;;;;;;;5026702;28;62208;-75
2022/08/30 03:08:39;;;;;;;;;4.00;3.00;;;;;;;;5027119;28;62766;-75
2022/08/30 03:11:05;;;;;;;;;5.00;4.00;;;;;;;;5026210;28;62388;-74
2022/08/30 03:13:30;;;;;;;;;3.25;3.00;;;;;;;;5028120;28;61878;-75
2022/08/30 03:15:56;;;;;;;;;5.00;4.00;;;;;;;;5025106;28;61936;-75
2022/08/30 03:18:22;;;;;;;;;3.25;3.00;;;;;;;;5022040;28;63944;-75
2022/08/30 03:20:47;;;;;;;;;4.25;4.25;;;;;;;;5024248;28;61739;-74
2022/08/30 03:23:13;;;;;;;;;8.00;4.00;;;;;;;;5022926;28;61691;-75
2022/08/30 03:25:39;;;;;;;;;4.75;4.00;;;;;;;;5024682;28;62190;-75
2022/08/30 03:28:05;;;;;;;;;5.25;3.25;;;;;;;;5022014;28;65048;-74
2022/08/30 03:30:30;;;;;;;;;4.50;3.00;;;;;;;;5022261;28;61946;-75
2022/08/30 03:32:55;;;;;;;;;7.75;3.25;;;;;;;;5022948;28;62190;-75
2022/08/30 03:35:21;;;;;;;;;3.00;3.00;;;;;;;;5023221;28;61948;-75
2022/08/30 03:37:46;;;;;;;;;3.50;3.50;;;;;;;;5023812;28;61824;-75
2022/08/30 03:40:13;;;;;;;;;7.50;3.50;;;;;;;;5023944;28;61733;-75
2022/08/30 03:42:40;;;;;;;;;3.50;3.00;;;;;;;;5022936;28;61814;-75
2022/08/30 03:45:06;;;;;;;;;4.75;3.50;;;;;;;;5023664;28;61925;-75
2022/08/30 03:47:31;;;;;;;;;5.75;2.50;;;;;;;;5023410;28;61677;-76
2022/08/30 03:49:56;;;;;;;;;4.00;4.00;;;;;;;;5023483;28;62146;-75
2022/08/30 03:52:21;;;;;;;;;3.00;3.00;;;;;;;;5024232;28;61909;-75
2022/08/30 03:54:47;;;;;;;;;6.00;4.50;;;;;;;;5022531;28;61748;-75
2022/08/30 03:57:12;;;;;;;;;4.00;4.00;;;;;;;;5023420;28;61983;-75
2022/08/30 03:59:38;;;;;;;;;5.75;5.75;;;;;;;;5021717;28;61786;-75
2022/08/30 04:02:04;;;;;;;;;5.25;1.25;;;;;;;;5020212;28;61707;-75
2022/08/30 04:04:29;;;;;;;;;4.50;2.75;;;;;;;;5023525;28;61687;-75
2022/08/30 04:06:55;;;;;;;;;4.25;3.00;;;;;;;;5022704;28;62936;-75
2022/08/30 04:09:20;;;;;;;;;8.00;4.75;;;;;;;;5022850;28;62646;-75
2022/08/30 04:11:45;;;;;;;;;3.50;3.50;;;;;;;;5021331;28;61915;-76
2022/08/30 04:14:11;;;;;;;;;2.00;1.00;;;;;;;;5020944;28;61858;-75
2022/08/30 04:16:36;;;;;;;;;6.75;3.00;;;;;;;;5022191;28;62215;-75
2022/08/30 04:19:02;;;;;;;;;5.50;3.00;;;;;;;;5022476;28;61830;-75
2022/08/30 04:21:27;;;;;;;;;4.25;3.50;;;;;;;;5022762;28;62040;-75
2022/08/30 04:23:52;;;;;;;;;4.00;3.00;;;;;;;;5023128;28;61858;-76
2022/08/30 04:26:17;;;;;;;;;4.00;3.00;;;;;;;;5022182;28;62051;-76
2022/08/30 04:28:43;;;;;;;;;4.33;3.00;;;;;;;;5021629;28;61936;-75
2022/08/30 04:31:10;;;;;;;;;4.00;2.00;;;;;;;;5023100;28;61929;-74
2022/08/30 04:33:40;;;;;;;;;4.75;4.00;;;;;;;;5023888;28;61785;-75
2022/08/30 04:36:07;;;;;;;;;4.00;3.00;;;;;;;;5021359;28;64709;-75
2022/08/30 04:38:34;;;;;;;;;2.25;2.25;;;;;;;;5023413;28;62035;-75
2022/08/30 04:40:59;;;;;;;;;4.00;2.75;;;;;;;;5023142;28;61853;-75
2022/08/30 04:43:25;;;;;;;;;3.00;2.00;;;;;;;;5023369;28;61687;-75
2022/08/30 04:45:51;;;;;;;;;3.50;3.50;;;;;;;;5022381;28;62972;-76
2022/08/30 04:48:17;;;;;;;;;3.50;2.00;;;;;;;;5021781;28;61736;-75
2022/08/30 04:50:42;;;;;;;;;4.00;2.50;;;;;;;;5022960;28;61935;-76
2022/08/30 04:53:08;;;;;;;;;5.00;2.75;;;;;;;;5021864;28;61945;-76
2022/08/30 04:55:33;;;;;;;;;5.25;3.00;;;;;;;;5020907;28;64573;-75
2022/08/30 04:57:59;;;;;;;;;4.00;3.75;;;;;;;;5021741;28;61910;-74
2022/08/30 05:00:24;;;;;;;;;3.00;2.75;;;;;;;;5021410;28;61873;-74
2022/08/30 05:02:50;;;;;;;;;6.00;4.75;;;;;;;;5021923;28;62116;-74
2022/08/30 05:05:57;;;;;;;;;3.75;3.75;;;;;;;;5021016;28;63795;-75
2022/08/30 05:08:04;;;;;;;;;6.00;3.00;;;;;;;;5019740;28;62037;-75
2022/08/30 05:10:29;;;;;;;;;8.50;3.25;;;;;;;;5021034;28;61747;-75
2022/08/30 05:12:54;;;;;;;;;6.00;3.25;;;;;;;;5023034;28;62072;-75
2022/08/30 05:15:21;;;;;;;;;3.25;3.00;;;;;;;;5021716;28;63502;-75
2022/08/30 05:17:47;;;;;;;;;6.00;3.75;;;;;;;;5022954;28;61795;-76
2022/08/30 05:20:12;;;;;;;;;5.00;4.00;;;;;;;;5022508;28;61751;-75
2022/08/30 05:22:38;;;;;;;;;6.25;2.00;;;;;;;;5022932;28;61787;-75
2022/08/30 05:25:04;;;;;;;;;6.25;4.00;;;;;;;;5021896;28;61855;-76
2022/08/30 05:27:29;;;;;;;;;7.00;5.25;;;;;;;;5021023;28;61864;-75
2022/08/30 05:29:54;;;;;;;;;3.50;3.50;;;;;;;;5020940;28;61870;-75
2022/08/30 05:32:20;;;;;;;;;6.25;4.75;;;;;;;;5022402;28;61896;-75
2022/08/30 05:34:45;;;;;;;;;5.50;3.00;;;;;;;;5022005;28;63091;-75
2022/08/30 05:37:10;;;;;;;;;5.00;3.25;;;;;;;;5021331;28;61818;-75
2022/08/30 05:39:35;;;;;;;;;5.75;4.00;;;;;;;;5020946;28;61915;-75
2022/08/30 05:42:01;;;;;;;;;7.00;3.00;;;;;;;;5019857;28;61901;-77
2022/08/30 05:44:26;;;;;;;;;5.25;3.75;;;;;;;;5019706;28;63668;-75
2022/08/30 05:46:51;;;;;;;;;3.25;3.25;;;;;;;;5020703;28;61881;-76
2022/08/30 05:49:17;;;;;;;;;3.00;3.00;;;;;;;;5022559;28;61824;-75
2022/08/30 05:51:42;;;;;;;;;3.75;3.75;;;;;;;;5021985;28;61870;-75
2022/08/30 05:54:08;;;;;;;;;3.50;3.50;;;;;;;;5019554;28;63908;-76
2022/08/30 05:56:35;;;;;;;;;5.50;3.00;;;;;;;;5016176;28;62143;-74
2022/08/30 05:59:01;;;;;;;;;2.25;2.25;;;;;;;;5022058;28;61900;-74
2022/08/30 06:01:34;;;;;;;;;4.50;4.00;;;;;;;;5021548;28;61835;-74
2022/08/30 06:04:00;;;;;;;;;3.00;3.00;;;;;;;;5020071;28;63614;-74
2022/08/30 06:06:27;;;;;;;;;4.25;4.25;;;;;;;;5021751;28;61775;-75
2022/08/30 06:08:53;;;;;;;;;12.00;5.25;;;;;;;;5021996;28;61683;-74
2022/08/30 06:11:19;;;;;;;;;5.00;4.50;;;;;;;;5021689;28;62103;-74
2022/08/30 06:13:44;;;;;;;;;4.00;4.00;;;;;;;;5019524;28;63998;-74
2022/08/30 06:16:11;;;;;;;;;5.00;4.00;;;;;;;;5021336;28;61744;-74
2022/08/30 06:18:36;;;;;;;;;4.50;3.00;;;;;;;;5021853;28;61953;-74
2022/08/30 06:21:02;;;;;;;;;4.50;4.00;;;;;;;;5020649;28;61747;-74
2022/08/30 06:23:27;;;;;;;;;3.00;3.00;;;;;;;;5020715;28;61994;-74
2022/08/30 06:25:53;;;;;;;;;8.50;4.00;;;;;;;;5021618;28;61855;-74
2022/08/30 06:28:18;;;;;;;;;4.00;4.00;;;;;;;;5020679;28;61782;-75
2022/08/30 06:30:43;;;;;;;;;4.75;3.00;;;;;;;;5021204;28;61930;-74
2022/08/30 06:33:09;;;;;;;;;4.75;3.75;;;;;;;;5021282;28;62027;-74
2022/08/30 06:35:35;;;;;;;;;5.00;5.00;;;;;;;;5021072;28;62138;-74
2022/08/30 06:38:01;;;;;;;;;5.00;3.75;;;;;;;;5019553;28;61750;-75
2022/08/30 06:40:26;;;;;;;;;5.50;3.25;;;;;;;;5021190;28;61760;-75
2022/08/30 06:42:52;;;;;;;;;6.00;5.00;;;;;;;;5020113;28;62202;-75
2022/08/30 06:45:19;;;;;;;;;4.75;4.00;;;;;;;;5020287;28;61707;-75
2022/08/30 06:47:44;;;;;;;;;5.25;3.75;;;;;;;;5020810;28;61656;-74
2022/08/30 06:50:11;;;;;;;;;6.75;4.00;;;;;;;;5020793;28;61766;-75
2022/08/30 06:52:36;;;;;;;;;4.25;4.00;;;;;;;;5022192;28;61983;-76
2022/08/30 06:55:01;;;;;;;;;7.00;3.50;;;;;;;;5023276;28;61866;-76
2022/08/30 06:57:27;;;;;;;;;5.00;2.00;;;;;;;;5024732;28;61809;-76
2022/08/30 06:59:55;;;;;;;;;3.00;3.00;;;;;;;;5024710;28;62171;-76
2022/08/30 07:02:21;;;;;;;;;4.50;4.50;;;;;;;;5022480;28;63750;-76
2022/08/30 07:04:47;;;;;;;;;4.67;3.67;;;;;;;;5022939;28;61796;-76
2022/08/30 07:07:12;;;;;;;;;3.25;3.25;;;;;;;;5023376;28;62802;-76
2022/08/30 07:09:42;;;;;;;;;2.75;2.75;;;;;;;;5023418;28;61898;-76
2022/08/30 07:12:07;;;;;;;;;6.00;4.00;;;;;;;;5022577;28;63807;-76
2022/08/30 07:14:32;;;;;;;;;8.50;5.00;;;;;;;;5024320;28;61981;-76
2022/08/30 07:16:57;;;;;;;;;5.75;4.50;;;;;;;;5022865;28;62281;-76
2022/08/30 07:19:23;;;;;;;;;6.00;2.75;;;;;;;;5024739;28;61895;-76
2022/08/30 07:21:48;;;;;;;;;6.00;4.00;;;;;;;;5023589;28;62008;-76
2022/08/30 07:24:13;;;;;;;;;6.00;5.00;;;;;;;;5022866;28;61834;-76
2022/08/30 07:26:40;;;;;;;;;6.00;4.50;;;;;;;;5024416;28;62067;-76
2022/08/30 07:29:05;;;;;;;;;4.25;3.75;;;;;;;;5024574;28;62046;-75
2022/08/30 07:31:33;;;;;;;;;5.75;4.50;;;;;;;;5021489;28;63825;-75
2022/08/30 07:33:58;;;;;;;;;5.33;4.00;;;;;;;;5024359;28;61771;-75
2022/08/30 07:36:24;;;;;;;;;5.00;3.00;;;;;;;;5023977;28;61687;-76
2022/08/30 07:38:49;;;;;;;;;6.00;4.00;;;;;;;;5022824;28;61762;-76
2022/08/30 07:41:20;;;;;;;;;7.00;5.00;;;;;;;;5022223;28;63365;-76
2022/08/30 07:43:45;;;;;;;;;4.00;4.00;;;;;;;;5022763;28;61828;-76
2022/08/30 07:46:11;;;;;;;;;6.50;6.00;;;;;;;;5023724;28;62002;-75
2022/08/30 07:48:36;;;;;;;;;3.50;3.50;;;;;;;;5022625;28;62169;-75
2022/08/30 07:51:03;;;;;;;;;6.00;5.00;;;;;;;;5021317;28;63197;-75
2022/08/30 07:53:29;;;;;;;;;6.75;5.00;;;;;;;;5022469;28;62057;-76
2022/08/30 07:55:54;;;;;;;;;3.00;2.50;;;;;;;;5022081;28;61787;-76
2022/08/30 07:58:19;;;;;;;;;5.50;4.75;;;;;;;;5022840;28;61704;-76
2022/08/30 08:00:45;;;;;;;;;3.50;3.50;;;;;;;;5021356;28;64006;-76
2022/08/30 08:03:10;;;;;;;;;3.50;3.00;;;;;;;;5023223;28;61790;-77
2022/08/30 08:05:43;;;;;;;;;3.67;3.67;;;;;;;;5023269;28;61873;-76
2022/08/30 08:08:09;;;;;;;;;5.25;4.00;;;;;;;;5023706;28;61750;-78
2022/08/30 08:10:38;;;;;;;;;5.67;3.67;;;;;;;;5022846;28;61960;-76
2022/08/30 08:13:04;;;;;;;;;5.00;5.00;;;;;;;;5023360;28;61790;-76
2022/08/30 08:15:29;;;;;;;;;7.25;6.50;;;;;;;;5018292;28;62412;-76
2022/08/30 08:17:54;;;;;;;;;5.00;4.00;;;;;;;;5002338;28;61829;-76
2022/08/30 08:20:20;;;;;;;;;5.67;5.00;;;;;;;;5017961;28;63668;-76
2022/08/30 08:22:45;;;;;;;;;6.67;4.00;;;;;;;;5018875;28;61877;-76
2022/08/30 08:25:10;;;;;;;;;4.67;4.33;;;;;;;;5003088;28;62160;-76
2022/08/30 08:27:35;;;;;;;;;4.00;4.00;;;;;;;;5019133;28;61857;-76
2022/08/30 08:30:01;;;;;;;;;4.00;4.00;;;;;;;;5002566;28;62045;-76
2022/08/30 08:32:26;;;;;;;;;6.00;4.67;;;;;;;;5005319;28;62035;-76
2022/08/30 08:34:51;;;;;;;;;4.33;4.00;;;;;;;;5021553;28;61866;-76
2022/08/30 08:37:17;;;;;;;;;5.33;3.67;;;;;;;;5020532;28;62236;-76
2022/08/30 08:39:42;;;;;;;;;4.67;4.67;;;;;;;;5020975;28;62948;-76
2022/08/30 08:42:23;;;;;;;;;5.33;4.33;;;;;;;;5019882;28;61838;-76
2022/08/30 08:45:08;;;;;;;;;5.67;5.67;;;;;;;;5019556;28;61833;-76
2022/08/30 08:47:36;;;;;;;;;4.75;4.75;;;;;;;;5021527;28;62407;-76
2022/08/30 08:50:04;;;;;;;;;5.00;4.00;;;;;;;;5022013;28;62568;-76
2022/08/30 08:55:19;;;;;;;;;4.67;4.33;;;;;;;;5022668;28;61691;-76
2022/08/30 08:57:45;;;;;;;;;3.67;3.67;;;;;;;;5021068;28;61938;-75
2022/08/30 09:00:11;;;;;;;;;4.00;3.67;;;;;;;;5018692;28;63559;-76
2022/08/30 09:02:40;;;;;;;;;7.33;4.67;;;;;;;;5021215;28;62024;-75
2022/08/30 09:05:05;;;;;;;;;5.33;4.67;;;;;;;;5020946;28;61829;-75
2022/08/30 09:07:37;;;;;;;;;5.33;5.00;;;;;;;;5018226;28;61790;-76
2022/08/30 09:10:03;;;;;;;;;6.00;3.00;;;;;;;;5020111;28;63068;-75
2022/08/30 09:12:28;;;;;;;;;9.00;4.00;;;;;;;;5017958;28;61960;-76
2022/08/30 09:14:57;;;;;;;;;8.33;5.33;;;;;;;;5019484;28;61719;-75
2022/08/30 09:17:22;;;;;;;;;4.67;4.33;;;;;;;;5021492;28;62179;-75
2022/08/30 09:19:50;;;;;;;;;6.00;6.00;;;;;;;;5021662;28;61956;-75
2022/08/30 09:22:31;;;;;;;;;5.33;4.33;;;;;;;;5020919;28;61924;-75
2022/08/30 09:25:19;;;;;;;;;6.67;5.00;;;;;;;;5022092;28;61949;-77
2022/08/30 09:27:46;;;;;;;;;4.00;3.00;;;;;;;;5022600;28;61823;-77
2022/08/30 09:30:19;;;;;;;;;5.33;5.33;;;;;;;;5019859;28;63716;-76
2022/08/30 09:32:54;;;;;;;;;5.67;5.00;;;;;;;;5021376;28;61938;-75
2022/08/30 09:35:20;;;;;;;;;5.67;4.00;;;;;;;;5020573;28;61780;-75
2022/08/30 09:37:57;;;;;;;;;5.33;5.00;;;;;;;;5020950;28;62135;-75
2022/08/30 09:40:34;;;;;;;;;4.67;4.00;;;;;;;;5019994;28;63085;-75
2022/08/30 09:43:26;;;;;;;;;5.67;5.67;;;;;;;;5022333;28;61805;-75
2022/08/30 09:46:01;;;;;;;;;5.00;4.00;;;;;;;;5033831;28;62195;-76
2022/08/30 09:48:29;;;;;;;;;4.67;2.00;;;;;;;;5020740;28;61813;-75
2022/08/30 09:51:10;;;;;;;;;6.33;2.67;;;;;;;;5019778;28;64069;-75
2022/08/30 09:53:44;;;;;;;;;4.33;4.33;;;;;;;;5020020;28;61831;-75
2022/08/30 09:56:18;;;;;;;;;8.33;4.67;;;;;;;;5021441;28;61791;-75
2022/08/30 09:58:49;;;;;;;;;8.33;5.00;;;;;;;;5022092;28;61774;-75
2022/08/30 10:01:19;;;;;;;;;5.67;5.67;;;;;;;;5020445;28;62734;-76
2022/08/30 10:03:56;;;;;;;;;5.00;5.00;;;;;;;;5020630;28;61985;-75
2022/08/30 10:06:57;;;;;;;;;6.00;6.00;;;;;;;;5020558;28;61882;-75
2022/08/30 10:09:25;;;;;;;;;10.00;4.00;;;;;;;;4990092;28;62534;-75
2022/08/30 10:12:03;;;;;;;;;9.67;5.00;;;;;;;;4961184;28;64717;-75
2022/08/30 10:14:37;;;;;;;;;8.00;4.67;;;;;;;;4977715;28;61995;-75
2022/08/30 10:17:09;;;;;;;;;5.67;4.67;;;;;;;;4977893;28;61776;-75
2022/08/30 10:19:50;;;;;;;;;4.00;3.67;;;;;;;;4961720;28;62134;-75
2022/08/30 10:22:28;;;;;;;;;5.67;5.67;;;;;;;;4993535;28;64936;-75
2022/08/30 10:24:59;;;;;;;;;10.33;7.33;;;;;;;;4994133;28;61976;-74
2022/08/30 10:27:57;;;;;;;;;8.00;5.00;;;;;;;;4960689;28;61882;-75
2022/08/30 10:30:22;;;;;;;;;5.67;4.33;;;;;;;;4963236;28;62186;-75
2022/08/30 10:33:05;;;;;;;;;8.33;7.00;;;;;;;;4980354;28;62882;-76
2022/08/30 10:35:38;;;;;;;;;5.00;4.33;;;;;;;;4964553;28;61930;-76
2022/08/30 10:38:18;;;;;;;;;7.00;4.67;;;;;;;;4980976;28;62270;-75
2022/08/30 10:43:42;;;;;;;;;3.67;3.00;;;;;;;;5002566;28;61832;-75
2022/08/30 10:46:15;;;;;;;;;14.67;13.00;;;;;;;;5056651;28;62029;-75
2022/08/30 10:48:42;;;;;;;;;8.67;8.67;;;;;;;;5024874;28;61843;-75
2022/08/30 10:51:10;;;;;;;;;22.33;14.00;;;;;;;;5023509;28;62071;-74
2022/08/30 10:53:54;;;;;;;;;11.67;9.67;;;;;;;;5023881;28;62193;-73
2022/08/30 10:56:23;;;;;;;;;10.00;7.00;;;;;;;;5024802;28;61891;-75
2022/08/30 10:58:49;;;;;;;;;5.67;5.00;;;;;;;;5024457;28;62036;-74
2022/08/30 11:01:26;;;;;;;;;6.00;6.00;;;;;;;;5024377;28;61834;-74
2022/08/30 11:04:07;;;;;;;;;7.33;7.33;;;;;;;;5022655;28;63670;-74
2022/08/30 11:06:41;;;;;;;;;8.00;5.00;;;;;;;;5024586;28;61759;-75
2022/08/30 11:09:22;;;;;;;;;7.33;5.00;;;;;;;;5024695;28;61926;-75
2022/08/30 11:12:06;;;;;;;;;10.33;9.67;;;;;;;;5022966;28;61710;-75
2022/08/30 11:14:31;;;;;;;;;10.00;8.00;;;;;;;;5020665;28;63806;-75
2022/08/30 11:16:58;;;;;;;;;5.67;5.67;;;;;;;;5022375;28;62156;-75
2022/08/30 11:19:33;;;;;;;;;7.00;5.33;;;;;;;;5021582;28;62005;-75
2022/08/30 11:22:28;;;;;;;;;8.67;8.33;;;;;;;;5020660;28;61921;-75
2022/08/30 11:24:56;;;;;;;;;7.33;6.33;;;;;;;;5030546;28;63571;-75
2022/08/30 11:27:39;;;;;;;;;8.33;7.67;;;;;;;;5021369;28;62024;-76
2022/08/30 11:30:27;;;;;;;;;7.67;6.33;;;;;;;;5053674;28;62062;-75
2022/08/30 11:32:59;;;;;;;;;8.00;6.00;;;;;;;;5020851;28;61959;-75
2022/08/30 11:35:35;;;;;;;;;6.33;6.00;;;;;;;;5020754;28;62673;-76
2022/08/30 11:38:09;;;;;;;;;6.00;3.33;;;;;;;;5018449;28;62140;-76
2022/08/30 11:40:58;;;;;;;;;6.00;4.00;;;;;;;;5019975;28;61856;-75
2022/08/30 11:43:32;;;;;;;;;6.00;5.00;;;;;;;;4991289;28;62159;-76
2022/08/30 11:46:16;;;;;;;;;6.00;5.00;;;;;;;;4998623;28;63643;-76
2022/08/30 11:48:48;;;;;;;;;5.67;4.67;;;;;;;;4998506;28;61993;-76
2022/08/30 11:51:33;;;;;;;;;5.00;5.00;;;;;;;;4982506;28;62023;-76
2022/08/30 11:54:01;;;;;;;;;7.33;6.00;;;;;;;;4998213;28;62373;-76
2022/08/30 11:56:26;;;;;;;;;9.67;5.00;;;;;;;;4998209;28;62662;-77
2022/08/30 11:58:54;;;;;;;;;5.33;4.33;;;;;;;;4998719;28;61873;-76
2022/08/30 12:01:31;;;;;;;;;5.00;4.00;;;;;;;;4996667;28;62154;-77
2022/08/30 12:04:00;;;;;;;;;5.00;5.00;;;;;;;;4998480;28;62068;-76
2022/08/30 12:06:37;;;;;;;;;5.67;2.67;;;;;;;;4998534;28;61785;-75
2022/08/30 12:09:03;;;;;;;;;4.67;3.67;;;;;;;;4999172;28;61914;-77
2022/08/30 12:11:34;;;;;;;;;6.00;5.00;;;;;;;;4982521;28;62059;-76
2022/08/30 12:14:00;;;;;;;;;6.00;5.00;;;;;;;;4998939;28;62143;-76
2022/08/30 12:18:26;;;;;;;;;4.33;3.33;;;;;;;;4999641;28;62086;-77
2022/08/30 12:19:24;;;;;;;;;8.33;5.67;;;;;;;;4999957;28;62117;-77
2022/08/30 12:21:57;;;;;;;;;8.33;5.33;;;;;;;;5019679;28;62144;-77
2022/08/30 12:24:42;;;;;;;;;5.67;5.67;;;;;;;;5052166;28;61849;-77
2022/08/30 12:27:22;;;;;;;;;6.00;5.00;;;;;;;;5020312;28;62511;-77
2022/08/30 12:29:52;;;;;;;;;4.00;4.00;;;;;;;;5021096;28;61990;-77
2022/08/30 12:32:19;;;;;;;;;7.33;4.67;;;;;;;;5019191;28;62036;-77
2022/08/30 12:34:44;;;;;;;;;4.33;4.33;;;;;;;;5020216;28;61835;-77
2022/08/30 12:37:23;;;;;;;;;6.00;6.00;;;;;;;;5020165;28;62047;-76
2022/08/30 12:40:00;;;;;;;;;7.00;4.00;;;;;;;;5018736;28;61772;-77
2022/08/30 12:42:27;;;;;;;;;6.33;4.00;;;;;;;;5020919;28;61913;-77
2022/08/30 12:44:54;;;;;;;;;5.00;4.00;;;;;;;;5053892;28;62192;-75
2022/08/30 12:47:22;;;;;;;;;5.67;5.33;;;;;;;;5017550;28;63003;-76
2022/08/30 12:49:49;;;;;;;;;7.00;5.00;;;;;;;;5013715;28;61733;-76
2022/08/30 12:52:28;;;;;;;;;4.33;3.33;;;;;;;;5022802;28;62029;-76
2022/08/30 12:54:54;;;;;;;;;7.00;5.00;;;;;;;;5021088;28;62249;-76
2022/08/30 12:57:40;;;;;;;;;5.33;4.00;;;;;;;;5022475;28;62034;-76
2022/08/30 13:00:07;;;;;;;;;4.00;4.00;;;;;;;;5021556;28;61978;-77
2022/08/30 13:02:46;;;;;;;;;5.67;4.67;;;;;;;;5021342;28;61962;-74
2022/08/30 13:05:31;;;;;;;;;5.33;4.33;;;;;;;;5023033;28;61751;-75
2022/08/30 13:08:15;;;;;;;;;4.00;4.00;;;;;;;;5020927;28;64614;-75
2022/08/30 13:10:52;;;;;;;;;4.33;4.33;;;;;;;;5021294;28;62005;-76
2022/08/30 13:13:26;;;;;;;;;5.00;5.00;;;;;;;;5022607;28;62084;-77
2022/08/30 13:15:51;;;;;;;;;5.67;4.67;;;;;;;;5021292;28;61951;-76
2022/08/30 13:18:31;;;;;;;;;4.33;4.33;;;;;;;;5018864;28;64772;-77
2022/08/30 13:21:08;;;;;;;;;5.67;5.67;;;;;;;;5019689;28;61894;-76
2022/08/30 13:23:34;;;;;;;;;10.00;6.67;;;;;;;;5018333;28;61944;-76
2022/08/30 13:25:59;;;;;;;;;6.00;4.67;;;;;;;;5020850;28;61703;-76
2022/08/30 13:28:24;;;;;;;;;8.67;5.67;;;;;;;;5019785;28;61764;-77
2022/08/30 13:30:49;;;;;;;;;4.33;4.00;;;;;;;;5020391;28;62140;-77
2022/08/30 13:33:15;;;;;;;;;5.33;3.00;;;;;;;;5019364;28;61795;-77
2022/08/30 13:35:41;;;;;;;;;5.67;5.67;;;;;;;;5020077;28;62159;-77
2022/08/30 13:38:06;;;;;;;;;4.00;4.00;;;;;;;;5018506;28;63605;-77
2022/08/30 13:40:32;;;;;;;;;6.00;4.33;;;;;;;;5021199;28;61683;-80
2022/08/30 13:42:57;;;;;;;;;6.33;4.00;;;;;;;;5021791;28;61982;-76
2022/08/30 13:45:22;;;;;;;;;6.67;5.00;;;;;;;;5022158;28;61826;-76
2022/08/30 13:47:48;;;;;;;;;5.00;5.00;;;;;;;;5020137;28;64214;-76
2022/08/30 13:50:14;;;;;;;;;4.00;4.00;;;;;;;;5021048;28;62176;-76
2022/08/30 13:52:39;;;;;;;;;7.00;4.00;;;;;;;;5021748;28;61848;-76
2022/08/30 13:55:05;;;;;;;;;6.00;4.00;;;;;;;;5019525;28;62159;-76
2022/08/30 13:57:31;;;;;;;;;5.67;4.00;;;;;;;;5018724;28;65039;-76
2022/08/30 13:59:56;;;;;;;;;4.00;4.00;;;;;;;;5019706;28;61913;-77
2022/08/30 14:02:21;;;;;;;;;4.00;4.00;;;;;;;;5019387;28;61975;-76
2022/08/30 14:04:47;;;;;;;;;4.67;4.67;;;;;;;;5021186;28;62011;-76
2022/08/30 14:07:12;;;;;;;;;4.33;3.00;;;;;;;;5019560;28;63662;-77
2022/08/30 14:09:38;;;;;;;;;5.67;4.00;;;;;;;;5020171;28;62096;-78
2022/08/30 14:12:03;;;;;;;;;4.67;4.67;;;;;;;;5020499;28;61943;-76
2022/08/30 14:14:29;;;;;;;;;6.00;5.00;;;;;;;;5021882;28;62044;-77
2022/08/30 14:16:54;;;;;;;;;5.67;4.00;;;;;;;;5020999;28;62833;-78
2022/08/30 14:19:19;;;;;;;;;7.00;6.00;;;;;;;;5021746;28;61756;-78
2022/08/30 14:21:45;;;;;;;;;4.33;4.00;;;;;;;;5021699;28;61916;-77
2022/08/30 14:24:10;;;;;;;;;4.00;4.00;;;;;;;;5021519;28;61776;-78
2022/08/30 14:26:46;;;;;;;;;5.67;4.00;;;;;;;;5019597;28;63579;-78
2022/08/30 14:29:13;;;;;;;;;4.67;3.67;;;;;;;;5019586;28;61838;-78
2022/08/30 14:31:39;;;;;;;;;4.00;4.00;;;;;;;;5021410;28;61763;-78
2022/08/30 14:34:04;;;;;;;;;6.00;4.00;;;;;;;;5020350;28;61874;-78
2022/08/30 14:36:30;;;;;;;;;5.67;4.67;;;;;;;;5020902;28;61963;-78
2022/08/30 14:38:57;;;;;;;;;5.33;3.00;;;;;;;;5019967;28;62003;-79
2022/08/30 14:41:22;;;;;;;;;7.33;6.00;;;;;;;;5020112;28;61930;-78
2022/08/30 14:43:49;;;;;;;;;5.67;4.33;;;;;;;;5019004;28;62084;-78
2022/08/30 14:46:15;;;;;;;;;4.00;4.00;;;;;;;;5019116;28;62882;-78
2022/08/30 14:48:41;;;;;;;;;5.00;4.00;;;;;;;;5018752;28;62740;-78
2022/08/30 14:51:10;;;;;;;;;6.00;4.00;;;;;;;;5017769;28;62543;-79
2022/08/30 14:53:37;;;;;;;;;4.67;4.33;;;;;;;;5049820;28;61866;-78
2022/08/30 14:56:09;;;;;;;;;6.33;3.67;;;;;;;;5018290;28;63623;-78